Martinez, Georgia
Current Conditions -  °F | °C
As of 3:53 AM on Saturday 22 Nov 2014 (Local Time) from KDNL Reporting Station
Clear Clear  
Wind Chill: 38°   Ceiling: Unl
Heat Index: 42°   Visibility: 10mi
Dew Point: 24°   Wind: 7mph
Humidity: 49%   Direction: 70°ENE
Pressure: 30.48"   Gusts: NA
Location:  33.52°N, 82.07°W
Report Text: KDNL 220853Z AUTO 07006KT 10SM CLR 06/M04 A3048 RMK AO2 SLP321 T00561044 53003
Loading
Personal Weather Stations






























Interactive Weather Map New forecast layout! Learn more

10-Day Weather Forecast

Advertisements
Track Severe Weather on mobile